Time;durP1;ratioP1;P1;durP2;ratioP2;P2;SDS_P1;SDS_P2;PMS_P1;PMS_P2;Temp;Humidity;BMP_temperature;BMP_pressure;BME280_temperature;BME280_humidity;BME280_pressure;Samples;Min_cycle;Max_cycle;Signal;HPM_P1;HPM_P2
2022/11/14 00:01:32;;;;;;;4.40;4.00;;;21.80;98.40;;;;;;6254754;28;89421;-66
2022/11/14 00:04:34;;;;;;;4.50;4.10;;;21.90;98.40;;;;;;6255019;28;89071;-66
2022/11/14 00:07:36;;;;;;;4.18;3.78;;;21.80;98.40;;;;;;6254379;28;88688;-66
2022/11/14 00:10:38;;;;;;;4.35;3.70;;;21.80;98.40;;;;;;6256192;28;90690;-67
2022/11/14 00:13:40;;;;;;;4.00;3.60;;;21.80;98.40;;;;;;6259906;28;88249;-67
2022/11/14 00:16:44;;;;;;;4.13;3.72;;;21.80;98.50;;;;;;6253714;28;89324;-66
2022/11/14 00:19:46;;;;;;;5.40;4.22;;;21.80;98.40;;;;;;6257482;28;89108;-67
2022/11/14 00:22:48;;;;;;;6.25;4.63;;;21.80;98.40;;;;;;6257769;28;90312;-67
2022/11/14 00:25:50;;;;;;;4.55;4.00;;;21.80;98.50;;;;;;6258931;28;89108;-67
2022/11/14 00:28:52;;;;;;;4.35;3.95;;;21.80;98.50;;;;;;6257842;28;89278;-66
2022/11/14 00:31:55;;;;;;;4.50;4.03;;;21.80;98.50;;;;;;6258037;28;88676;-66
2022/11/14 00:34:57;;;;;;;3.95;3.65;;;21.80;98.50;;;;;;6257538;28;89271;-66
2022/11/14 00:37:59;;;;;;;4.30;3.90;;;21.70;98.50;;;;;;6257843;28;89265;-66
2022/11/14 00:41:01;;;;;;;4.20;3.80;;;21.70;98.50;;;;;;6257898;27;89349;-66
2022/11/14 00:44:03;;;;;;;4.75;4.28;;;21.70;98.50;;;;;;6245690;28;87570;-67
2022/11/14 00:47:07;;;;;;;4.13;3.72;;;21.80;98.50;;;;;;6257985;27;89578;-66
2022/11/14 00:50:10;;;;;;;4.18;3.78;;;21.70;98.50;;;;;;6257933;28;88053;-66
2022/11/14 00:53:12;;;;;;;4.68;4.25;;;21.70;98.50;;;;;;6257204;28;90302;-66
2022/11/14 00:56:14;;;;;;;4.40;4.00;;;21.70;98.40;;;;;;6257617;28;89700;-66
2022/11/14 00:59:16;;;;;;;4.50;4.10;;;21.70;98.40;;;;;;6260064;27;89155;-66
2022/11/14 01:02:19;;;;;;;4.18;3.80;;;21.70;98.40;;;;;;6257323;28;89118;-66
2022/11/14 01:05:21;;;;;;;4.43;4.03;;;21.70;98.50;;;;;;6256791;28;89496;-66
2022/11/14 01:08:23;;;;;;;4.75;4.25;;;21.60;98.50;;;;;;6257726;28;88117;-67
2022/11/14 01:11:25;;;;;;;5.50;4.95;;;21.60;98.00;;;;;;6253968;28;89470;-67
2022/11/14 01:14:27;;;;;;;5.85;4.55;;;21.70;96.90;;;;;;6257080;28;88538;-66
2022/11/14 01:17:31;;;;;;;6.10;4.50;;;21.60;96.90;;;;;;6257694;28;89212;-66
2022/11/14 01:20:33;;;;;;;4.55;4.15;;;21.60;97.40;;;;;;6255923;28;89175;-66
2022/11/14 01:23:36;;;;;;;4.93;4.25;;;21.60;97.60;;;;;;6256220;28;90356;-66
2022/11/14 01:26:38;;;;;;;4.63;4.20;;;21.70;97.80;;;;;;6248680;28;88237;-67
2022/11/14 01:29:40;;;;;;;4.57;4.18;;;21.60;97.80;;;;;;6258184;28;89440;-66
2022/11/14 01:32:43;;;;;;;4.43;3.95;;;21.60;97.80;;;;;;6257728;28;89092;-66
2022/11/14 01:35:45;;;;;;;4.57;4.18;;;21.60;97.80;;;;;;6256131;28;89192;-66
2022/11/14 01:38:51;;;;;;;4.40;4.00;;;21.60;97.80;;;;;;6256695;28;89193;-66
2022/11/14 01:41:54;;;;;;;5.60;4.22;;;21.60;98.00;;;;;;6253928;28;89123;-66
2022/11/14 01:44:56;;;;;;;4.32;3.90;;;21.60;97.90;;;;;;6254599;28;87247;-66
2022/11/14 01:47:59;;;;;;;6.32;3.97;;;21.50;98.00;;;;;;6252639;28;89498;-66
2022/11/14 01:51:05;;;;;;;4.13;3.83;;;21.60;98.00;;;;;;6256715;28;89544;-66
2022/11/14 01:54:10;;;;;;;5.57;4.47;;;21.50;98.00;;;;;;6248773;28;90427;-66
2022/11/14 01:57:14;;;;;;;4.53;4.13;;;21.50;98.10;;;;;;6260972;27;89221;-66
2022/11/14 02:00:16;;;;;;;4.63;4.07;;;21.50;98.10;;;;;;6258185;27;88980;-66
2022/11/14 02:03:20;;;;;;;4.70;4.20;;;21.50;98.20;;;;;;6256230;28;89284;-66
2022/11/14 02:06:25;;;;;;;4.35;3.95;;;21.50;98.10;;;;;;6257288;28;90426;-67
2022/11/14 02:09:31;;;;;;;4.40;4.00;;;21.50;98.00;;;;;;6246389;28;88075;-66
2022/11/14 02:12:33;;;;;;;4.50;4.10;;;21.50;98.00;;;;;;6255473;28;87972;-67
2022/11/14 02:15:35;;;;;;;5.07;4.43;;;21.50;97.80;;;;;;6254081;27;88708;-66
2022/11/14 02:18:39;;;;;;;4.57;3.90;;;21.50;97.90;;;;;;6267323;27;89319;-66
2022/11/14 02:21:42;;;;;;;5.88;4.00;;;21.50;98.00;;;;;;6255398;27;89435;-67
2022/11/14 02:24:44;;;;;;;5.10;4.50;;;21.50;98.00;;;;;;6259630;27;90123;-66
2022/11/14 02:27:47;;;;;;;4.82;4.40;;;21.50;98.00;;;;;;6256557;28;88154;-67
2022/11/14 02:30:49;;;;;;;4.40;4.00;;;21.50;98.00;;;;;;6254954;28;89291;-66
2022/11/14 02:33:51;;;;;;;4.10;3.70;;;21.40;98.00;;;;;;6257318;27;89281;-66
2022/11/14 02:36:55;;;;;;;6.55;4.50;;;21.40;98.00;;;;;;6253646;28;88083;-66
2022/11/14 02:39:57;;;;;;;4.35;3.92;;;21.40;98.00;;;;;;6257005;28;89164;-66
2022/11/14 02:42:59;;;;;;;4.22;3.83;;;21.40;98.10;;;;;;6256923;28;89260;-67
2022/11/14 02:46:01;;;;;;;4.43;4.00;;;21.40;98.10;;;;;;6255544;28;89261;-66
2022/11/14 02:49:03;;;;;;;4.22;3.83;;;21.40;98.10;;;;;;6255251;28;89383;-67
2022/11/14 02:52:06;;;;;;;4.65;4.10;;;21.40;98.00;;;;;;6257641;27;88077;-67
2022/11/14 02:55:12;;;;;;;4.35;3.95;;;21.50;98.00;;;;;;6254707;28;89313;-66
2022/11/14 02:58:14;;;;;;;4.18;3.88;;;21.40;98.00;;;;;;6255286;28;89407;-66
2022/11/14 03:01:16;;;;;;;4.25;3.90;;;21.40;97.90;;;;;;6256144;28;89072;-66
2022/11/14 03:04:18;;;;;;;6.38;4.60;;;21.40;98.00;;;;;;6252517;27;89657;-66
2022/11/14 03:07:22;;;;;;;4.32;3.92;;;21.40;98.00;;;;;;6256021;28;89251;-67
2022/11/14 03:10:24;;;;;;;4.35;3.95;;;21.40;98.10;;;;;;6256314;28;89538;-67
2022/11/14 03:13:29;;;;;;;4.40;4.00;;;21.40;98.20;;;;;;6255705;28;89527;-67
2022/11/14 03:16:31;;;;;;;4.72;4.28;;;21.40;98.10;;;;;;6255274;28;88326;-66
2022/11/14 03:19:33;;;;;;;4.32;4.00;;;21.30;98.20;;;;;;6253454;28;88047;-66
2022/11/14 03:22:37;;;;;;;4.43;4.03;;;21.30;98.20;;;;;;6255941;28;89030;-66
2022/11/14 03:25:39;;;;;;;4.45;4.05;;;21.30;98.10;;;;;;6259538;27;90013;-67
2022/11/14 03:28:41;;;;;;;4.20;3.85;;;21.30;98.00;;;;;;6253681;28;89240;-67
2022/11/14 03:31:43;;;;;;;5.00;4.15;;;21.30;98.00;;;;;;6245970;28;89079;-67
2022/11/14 03:34:45;;;;;;;4.70;4.18;;;21.30;98.30;;;;;;6255084;28;89568;-67
2022/11/14 03:37:49;;;;;;;4.45;4.05;;;21.30;97.90;;;;;;6255934;28;88044;-66
2022/11/14 03:40:51;;;;;;;4.18;3.85;;;21.30;97.80;;;;;;6254564;28;89651;-67
2022/11/14 03:43:53;;;;;;;4.10;3.80;;;21.30;97.80;;;;;;6253301;27;89074;-67
2022/11/14 03:46:55;;;;;;;4.30;3.90;;;21.30;97.90;;;;;;6250716;27;88498;-67
2022/11/14 03:49:57;;;;;;;4.05;3.70;;;21.30;97.80;;;;;;6253709;27;89160;-67
2022/11/14 03:53:01;;;;;;;7.13;4.78;;;21.30;97.80;;;;;;6253605;27;89081;-66
2022/11/14 03:56:03;;;;;;;4.95;4.50;;;21.30;97.80;;;;;;6252617;28;90152;-66
2022/11/14 03:59:05;;;;;;;4.47;4.07;;;21.20;97.90;;;;;;6254345;27;89238;-66
2022/11/14 04:02:07;;;;;;;4.45;4.05;;;21.20;97.90;;;;;;6253866;27;89403;-66
2022/11/14 04:05:10;;;;;;;5.20;4.18;;;21.20;97.80;;;;;;6254346;28;89124;-66
2022/11/14 04:08:13;;;;;;;4.32;3.92;;;21.30;97.80;;;;;;6254993;28;89181;-66
2022/11/14 04:11:15;;;;;;;4.10;3.80;;;21.30;97.70;;;;;;6253636;28;89833;-67
2022/11/14 04:14:17;;;;;;;4.40;4.00;;;21.30;97.70;;;;;;6253190;28;89366;-67
2022/11/14 04:17:19;;;;;;;4.50;4.10;;;21.20;97.70;;;;;;6251627;28;88528;-66
2022/11/14 04:20:21;;;;;;;4.32;3.92;;;21.20;97.70;;;;;;6253052;28;89470;-67
2022/11/14 04:23:24;;;;;;;4.63;4.03;;;21.20;97.80;;;;;;6254107;27;89180;-66
2022/11/14 04:26:26;;;;;;;4.38;4.00;;;21.20;97.80;;;;;;6259106;27;90434;-66
2022/11/14 04:29:28;;;;;;;4.60;4.15;;;21.20;97.70;;;;;;6254237;28;88118;-66
2022/11/14 04:32:30;;;;;;;4.18;3.80;;;21.20;97.70;;;;;;6255045;27;89274;-66
2022/11/14 04:35:32;;;;;;;4.50;4.10;;;21.20;97.70;;;;;;6249741;27;90198;-67
2022/11/14 04:38:38;;;;;;;3.95;3.65;;;21.20;97.70;;;;;;6255427;28;89216;-66
2022/11/14 04:41:40;;;;;;;4.00;3.70;;;21.20;97.70;;;;;;6254280;28;89105;-66
2022/11/14 04:44:42;;;;;;;4.40;4.00;;;21.20;97.70;;;;;;6252588;28;87757;-66
2022/11/14 04:47:44;;;;;;;4.43;4.00;;;21.30;97.70;;;;;;6252046;28;88548;-66
2022/11/14 04:50:46;;;;;;;4.47;3.97;;;21.20;97.70;;;;;;6253077;28;89173;-66
2022/11/14 04:53:50;;;;;;;4.32;3.92;;;21.20;97.70;;;;;;6254487;28;88052;-66
2022/11/14 04:56:52;;;;;;;4.25;3.85;;;21.30;97.70;;;;;;6256804;27;92025;-66
2022/11/14 04:59:54;;;;;;;4.45;4.05;;;21.30;97.70;;;;;;6257836;28;89014;-66
2022/11/14 05:02:58;;;;;;;5.13;4.30;;;21.30;97.70;;;;;;6256838;27;89250;-66
2022/11/14 05:06:00;;;;;;;3.90;3.60;;;21.30;97.70;;;;;;6257913;28;88140;-66
2022/11/14 05:09:04;;;;;;;4.38;4.00;;;21.30;97.70;;;;;;6258583;28;89145;-66
2022/11/14 05:12:07;;;;;;;4.28;3.88;;;21.40;97.70;;;;;;6254280;28;89107;-67
2022/11/14 05:15:10;;;;;;;4.30;3.90;;;21.40;97.70;;;;;;6255344;28;88190;-66
2022/11/14 05:18:12;;;;;;;4.40;3.97;;;21.30;97.70;;;;;;6256476;28;87300;-66
2022/11/14 05:21:15;;;;;;;3.83;3.53;;;21.40;97.70;;;;;;6257482;28;89540;-67
2022/11/14 05:24:19;;;;;;;3.85;3.55;;;21.40;97.60;;;;;;6256803;27;89373;-66
2022/11/14 05:27:21;;;;;;;4.07;3.78;;;21.40;97.60;;;;;;6258289;27;90305;-66
2022/11/14 05:30:23;;;;;;;3.80;3.50;;;21.40;97.40;;;;;;6253674;28;89175;-66
2022/11/14 05:33:25;;;;;;;4.40;4.00;;;21.50;97.40;;;;;;6252037;28;88028;-67
2022/11/14 05:36:27;;;;;;;4.18;3.78;;;21.50;97.30;;;;;;6257568;28;89301;-66
2022/11/14 05:39:30;;;;;;;4.30;3.90;;;21.50;97.20;;;;;;6257817;28;89450;-66
2022/11/14 05:42:32;;;;;;;4.55;4.15;;;21.50;97.20;;;;;;6238304;28;89237;-66
2022/11/14 05:45:34;;;;;;;4.10;3.70;;;21.50;97.20;;;;;;6257310;28;89552;-66
2022/11/14 05:48:37;;;;;;;3.72;3.42;;;21.50;97.10;;;;;;6258354;28;90217;-66
2022/11/14 05:51:39;;;;;;;4.30;3.90;;;21.50;97.10;;;;;;6256287;28;89269;-67
2022/11/14 05:58:39;;;;;;;3.85;3.45;;;21.50;97.00;;;;;;6255024;28;88064;-67
2022/11/14 06:01:41;;;;;;;4.30;3.90;;;21.60;97.70;;;;;;6256898;28;89436;-66
2022/11/14 06:04:43;;;;;;;4.30;3.90;;;21.60;99.40;;;;;;6257163;28;89171;-66
2022/11/14 06:07:46;;;;;;;4.65;4.22;;;21.60;98.30;;;;;;6255206;27;89238;-66
2022/11/14 06:10:48;;;;;;;4.28;3.88;;;21.70;99.90;;;;;;6255785;28;88352;-66
2022/11/14 06:13:51;;;;;;;4.47;3.90;;;21.80;98.40;;;;;;6255326;28;89025;-66
2022/11/14 06:16:53;;;;;;;4.60;4.20;;;21.80;97.50;;;;;;6251274;27;89224;-66
2022/11/14 06:19:55;;;;;;;4.40;4.00;;;21.90;97.30;;;;;;6254673;28;88450;-66
2022/11/14 06:22:57;;;;;;;4.20;3.80;;;21.90;97.10;;;;;;6253962;28;89255;-66
2022/11/14 06:26:00;;;;;;;4.03;3.72;;;21.90;97.00;;;;;;6264863;27;89262;-66
2022/11/14 06:29:03;;;;;;;4.18;3.78;;;21.90;97.00;;;;;;6252303;28;89071;-66
2022/11/14 06:32:06;;;;;;;3.95;3.65;;;21.90;96.90;;;;;;6247629;28;89227;-66
2022/11/14 06:35:09;;;;;;;4.20;3.80;;;21.90;96.90;;;;;;6252757;28;89035;-66
2022/11/14 06:38:11;;;;;;;3.90;3.60;;;21.90;96.90;;;;;;6245907;28;89226;-66
2022/11/14 06:41:15;;;;;;;4.18;3.72;;;21.90;96.90;;;;;;6252353;28;89162;-66
2022/11/14 06:44:18;;;;;;;4.50;4.10;;;21.80;97.20;;;;;;6244735;28;89421;-66
2022/11/14 06:47:20;;;;;;;4.55;4.13;;;21.80;96.80;;;;;;6253343;28;91275;-66
2022/11/14 06:50:22;;;;;;;4.32;3.92;;;21.90;96.80;;;;;;6254175;28;88407;-66
2022/11/14 06:53:25;;;;;;;4.13;3.72;;;21.90;96.70;;;;;;6252722;27;89043;-66
2022/11/14 06:56:27;;;;;;;4.85;4.30;;;21.90;96.70;;;;;;6253720;28;89692;-66
2022/11/14 06:59:30;;;;;;;5.32;4.35;;;21.90;96.70;;;;;;6251438;28;90337;-66
2022/11/14 07:02:32;;;;;;;4.53;4.13;;;21.90;96.70;;;;;;6245005;28;89189;-66
2022/11/14 07:05:34;;;;;;;5.07;4.32;;;21.90;96.70;;;;;;6253112;27;89261;-66
2022/11/14 07:08:36;;;;;;;3.90;3.60;;;21.90;96.80;;;;;;6254268;28;89128;-66
2022/11/14 07:11:38;;;;;;;4.30;3.90;;;21.90;96.80;;;;;;6250008;28;89391;-66
2022/11/14 07:14:42;;;;;;;4.43;4.03;;;21.90;96.80;;;;;;6208493;28;1264325;-66
2022/11/14 07:17:44;;;;;;;4.75;3.90;;;21.90;96.80;;;;;;6253923;28;89183;-66
2022/11/14 07:20:46;;;;;;;4.53;4.13;;;21.90;96.80;;;;;;6254372;28;88538;-66
2022/11/14 07:23:48;;;;;;;4.30;3.90;;;21.90;96.80;;;;;;6255068;27;89070;-66
2022/11/14 07:26:50;;;;;;;4.47;4.07;;;21.90;96.80;;;;;;6255747;28;89150;-66
2022/11/14 07:29:53;;;;;;;4.25;3.85;;;21.90;96.90;;;;;;6253512;28;90233;-66
2022/11/14 07:32:56;;;;;;;4.05;3.72;;;22.00;96.90;;;;;;6252132;28;89333;-66
2022/11/14 07:35:58;;;;;;;3.92;3.63;;;22.00;96.80;;;;;;6255344;28;89185;-66
2022/11/14 07:39:00;;;;;;;4.25;3.85;;;22.00;96.90;;;;;;6250594;28;89307;-66
2022/11/14 07:42:02;;;;;;;4.82;4.20;;;22.00;96.90;;;;;;6254594;27;89481;-66
2022/11/14 07:45:06;;;;;;;4.75;4.25;;;22.00;97.00;;;;;;6254426;28;89189;-66
2022/11/14 07:48:08;;;;;;;3.95;3.65;;;22.10;97.00;;;;;;6251905;28;94102;-66
2022/11/14 07:51:14;;;;;;;5.18;4.25;;;22.00;97.10;;;;;;6249219;28;94689;-67
2022/11/14 07:54:16;;;;;;;4.50;4.10;;;22.10;97.10;;;;;;6249256;28;94285;-66
2022/11/14 07:57:18;;;;;;;4.20;3.80;;;22.00;97.20;;;;;;6251272;28;94468;-66
2022/11/14 08:00:22;;;;;;;4.35;3.95;;;22.10;97.30;;;;;;6251485;28;95234;-66
2022/11/14 08:03:24;;;;;;;4.35;3.95;;;22.10;97.30;;;;;;6251749;28;93144;-66
2022/11/14 08:06:26;;;;;;;3.90;3.60;;;22.10;97.30;;;;;;6251930;28;94454;-66
2022/11/14 08:09:28;;;;;;;4.20;3.80;;;22.10;97.30;;;;;;6251857;28;94532;-66
2022/11/14 08:12:30;;;;;;;4.30;3.90;;;22.10;97.30;;;;;;6242517;28;94095;-66
2022/11/14 08:15:34;;;;;;;3.83;3.53;;;22.20;97.30;;;;;;6251035;28;94249;-66
2022/11/14 08:18:36;;;;;;;4.30;3.90;;;22.20;97.30;;;;;;6250808;28;94297;-66
2022/11/14 08:21:38;;;;;;;4.50;3.85;;;22.10;97.40;;;;;;6249681;28;93464;-67
2022/11/14 08:24:40;;;;;;;4.65;4.20;;;22.20;97.40;;;;;;6258277;27;94474;-66
2022/11/14 08:27:42;;;;;;;4.00;3.67;;;22.20;97.50;;;;;;6250214;28;93147;-66
2022/11/14 08:30:45;;;;;;;4.07;3.70;;;22.20;97.50;;;;;;6251444;27;95706;-66
2022/11/14 08:33:49;;;;;;;4.07;3.78;;;22.20;97.50;;;;;;6250391;28;94109;-66
2022/11/14 08:36:51;;;;;;;4.30;3.90;;;22.20;97.50;;;;;;6255041;28;94090;-66
2022/11/14 08:39:53;;;;;;;4.10;3.80;;;22.20;97.60;;;;;;6255807;28;94184;-66
2022/11/14 08:43:00;;;;;;;4.28;3.85;;;22.20;97.60;;;;;;6254548;28;94219;-66
2022/11/14 08:46:04;;;;;;;4.35;3.95;;;22.20;97.60;;;;;;6254487;28;93039;-66
2022/11/14 08:53:03;;;;;;;4.20;3.80;;;22.20;97.70;;;;;;6254465;28;94336;-66
2022/11/14 08:56:06;;;;;;;3.72;3.42;;;22.20;97.80;;;;;;6247288;27;94113;-66
2022/11/14 08:59:08;;;;;;;4.10;3.75;;;22.30;97.80;;;;;;6254374;28;94340;-66
2022/11/14 09:02:12;;;;;;;4.05;3.65;;;22.20;97.80;;;;;;6254750;28;95240;-66
2022/11/14 09:05:14;;;;;;;4.30;3.90;;;22.20;97.80;;;;;;6252097;27;94184;-66
2022/11/14 09:08:16;;;;;;;5.00;4.22;;;22.30;97.90;;;;;;6253846;28;94175;-66
2022/11/14 09:11:18;;;;;;;4.28;3.88;;;22.30;97.90;;;;;;6254350;28;94381;-67
2022/11/14 09:14:20;;;;;;;4.18;3.88;;;22.30;98.00;;;;;;6253915;28;94177;-66
2022/11/14 09:17:24;;;;;;;4.30;3.90;;;22.30;98.20;;;;;;6253288;28;94688;-66
2022/11/14 09:20:29;;;;;;;4.28;3.88;;;22.30;98.30;;;;;;6254396;28;94831;-67
2022/11/14 09:23:31;;;;;;;3.85;3.55;;;22.30;98.20;;;;;;6254321;28;93156;-66
2022/11/14 09:26:33;;;;;;;3.95;3.58;;;22.30;98.20;;;;;;6259697;27;93410;-66
2022/11/14 09:29:35;;;;;;;5.05;4.28;;;22.30;98.30;;;;;;6252774;28;94350;-66
2022/11/14 09:32:39;;;;;;;4.38;3.97;;;22.30;98.30;;;;;;6253277;28;95359;-67
2022/11/14 09:35:41;;;;;;;4.00;3.63;;;22.30;98.30;;;;;;6255030;28;94783;-67
2022/11/14 09:38:43;;;;;;;4.50;4.10;;;22.40;98.30;;;;;;6253598;28;94425;-66
2022/11/14 09:41:57;;;;;;;4.07;3.67;;;22.40;98.40;;;;;;6253372;27;94160;-66
2022/11/14 09:45:01;;;;;;;3.90;3.58;;;22.40;98.40;;;;;;6254624;28;94873;-66
2022/11/14 09:48:10;;;;;;;3.88;3.58;;;22.40;98.40;;;;;;6253756;28;94207;-67
2022/11/14 09:51:17;;;;;;;4.40;3.78;;;22.40;98.40;;;;;;6252856;27;94165;-66
2022/11/14 09:54:22;;;;;;;4.00;3.70;;;22.40;98.40;;;;;;6254576;28;93431;-67
2022/11/14 09:57:26;;;;;;;4.53;3.97;;;22.50;98.50;;;;;;6254274;28;94203;-67
2022/11/14 10:00:44;;;;;;;3.97;3.47;;;22.50;98.50;;;;;;6254455;28;94248;-66
2022/11/14 10:03:58;;;;;;;4.00;3.70;;;22.50;98.50;;;;;;6251837;27;94808;-67
2022/11/14 10:07:11;;;;;;;3.97;3.60;;;22.50;98.70;;;;;;6242480;27;94217;-67
2022/11/14 10:10:37;;;;;;;4.10;3.70;;;22.50;98.70;;;;;;6242513;28;94366;-67
2022/11/14 10:13:53;;;;;;;4.40;4.00;;;22.50;98.70;;;;;;6243173;28;94381;-67
2022/11/14 10:17:11;;;;;;;4.13;3.72;;;22.50;98.70;;;;;;6240848;28;94035;-67
2022/11/14 10:20:21;;;;;;;4.00;3.60;;;22.50;98.70;;;;;;6252274;28;94260;-67
2022/11/14 10:23:31;;;;;;;4.07;3.70;;;22.50;98.80;;;;;;6252998;28;94088;-67
2022/11/14 10:26:38;;;;;;;3.75;3.45;;;22.60;98.80;;;;;;6256228;27;93408;-67
2022/11/14 10:29:54;;;;;;;4.10;3.80;;;22.50;98.80;;;;;;6252128;28;94540;-67
2022/11/14 10:33:15;;;;;;;3.47;3.22;;;22.60;98.90;;;;;;6252966;28;94270;-68
2022/11/14 10:36:24;;;;;;;3.70;3.40;;;22.50;98.90;;;;;;6252061;28;95193;-67
2022/11/14 10:39:32;;;;;;;4.32;3.92;;;22.60;98.90;;;;;;6252627;28;94145;-67
2022/11/14 10:42:37;;;;;;;4.55;3.80;;;22.60;99.30;;;;;;6251040;28;94086;-67
2022/11/14 10:45:43;;;;;;;5.38;4.43;;;22.60;99.00;;;;;;6251303;28;94341;-67
2022/11/14 10:48:48;;;;;;;4.05;3.65;;;22.60;99.10;;;;;;6253491;28;94109;-67
2022/11/14 10:51:55;;;;;;;3.70;3.40;;;22.60;99.10;;;;;;6241746;28;94358;-67
2022/11/14 10:55:00;;;;;;;3.90;3.60;;;22.60;99.10;;;;;;6252313;28;94459;-67
2022/11/14 10:58:02;;;;;;;3.95;3.65;;;22.60;99.20;;;;;;6251095;28;93682;-67
2022/11/14 11:01:38;;;;;;;4.35;3.95;;;22.60;99.20;;;;;;6251185;28;94265;-67
2022/11/14 11:04:42;;;;;;;4.05;3.75;;;22.50;99.20;;;;;;6252740;28;94235;-67
2022/11/14 11:11:30;;;;;;;3.75;3.45;;;22.60;99.30;;;;;;6252417;28;92646;-67
2022/11/14 11:14:33;;;;;;;3.65;3.35;;;22.50;99.30;;;;;;6252642;28;94319;-67
2022/11/14 11:17:35;;;;;;;4.25;3.88;;;22.60;99.40;;;;;;6247708;27;94155;-67
2022/11/14 11:20:38;;;;;;;3.90;3.60;;;22.60;99.40;;;;;;6251251;28;94119;-67
2022/11/14 11:23:51;;;;;;;4.38;3.88;;;22.60;99.40;;;;;;6251990;28;94217;-67
2022/11/14 11:27:13;;;;;;;4.63;3.97;;;22.60;99.40;;;;;;6256480;27;94217;-67
2022/11/14 11:30:21;;;;;;;3.75;3.40;;;22.60;99.40;;;;;;6251056;28;93394;-66
2022/11/14 11:33:26;;;;;;;4.30;3.90;;;22.60;99.40;;;;;;6251640;28;94112;-67
2022/11/14 11:36:31;;;;;;;4.57;3.42;;;22.60;99.50;;;;;;6250191;28;94106;-67
2022/11/14 11:39:41;;;;;;;4.03;3.60;;;22.60;99.50;;;;;;6249860;27;95181;-67
2022/11/14 11:42:49;;;;;;;3.88;3.55;;;22.60;99.50;;;;;;6243786;28;94124;-67
2022/11/14 11:45:54;;;;;;;4.72;3.70;;;22.50;99.50;;;;;;6250555;28;94633;-67
2022/11/14 11:49:05;;;;;;;4.20;3.80;;;22.50;99.60;;;;;;6251154;28;94280;-67
2022/11/14 11:52:16;;;;;;;3.75;3.33;;;22.50;99.60;;;;;;6251497;28;94147;-67
2022/11/14 11:55:24;;;;;;;4.00;3.60;;;22.50;99.60;;;;;;6250275;28;94112;-67
2022/11/14 11:58:30;;;;;;;3.90;3.50;;;22.50;99.70;;;;;;6249064;28;94206;-67
2022/11/14 12:01:32;;;;;;;4.70;3.80;;;22.50;99.70;;;;;;6248849;28;93580;-67
2022/11/14 12:04:34;;;;;;;4.25;3.75;;;22.50;99.80;;;;;;6252065;27;93004;-67
2022/11/14 12:07:44;;;;;;;4.20;3.70;;;22.50;99.90;;;;;;6253269;28;94220;-67
2022/11/14 12:10:48;;;;;;;4.15;3.40;;;22.40;99.90;;;;;;6247974;28;95314;-68
2022/11/14 12:14:30;;;;;;;4.65;4.00;;;22.40;99.90;;;;;;6255164;28;94745;-67
2022/11/14 12:17:53;;;;;;;4.95;3.63;;;22.40;99.90;;;;;;6255589;28;94198;-67
2022/11/14 12:21:18;;;;;;;4.22;3.70;;;22.40;99.90;;;;;;6255980;28;94493;-68
2022/11/14 12:25:05;;;;;;;3.83;3.40;;;22.50;99.90;;;;;;6255616;27;94560;-67
2022/11/14 12:28:24;;;;;;;4.22;3.83;;;22.40;99.90;;;;;;6244636;28;94168;-67
2022/11/14 12:31:31;;;;;;;4.95;3.70;;;22.50;99.90;;;;;;6247743;28;94982;-67
2022/11/14 12:34:38;;;;;;;5.25;4.05;;;22.40;99.90;;;;;;6256515;28;93695;-67
2022/11/14 12:37:46;;;;;;;4.80;3.75;;;22.50;99.90;;;;;;6255940;28;94358;-67
2022/11/14 12:40:52;;;;;;;4.50;3.88;;;22.40;99.90;;;;;;6254838;27;94171;-67
2022/11/14 12:44:20;;;;;;;5.22;3.60;;;22.50;99.90;;;;;;6255578;28;95245;-67
2022/11/14 12:47:23;;;;;;;5.28;4.45;;;22.50;99.90;;;;;;6241098;27;94222;-68
2022/11/14 12:50:39;;;;;;;4.15;3.72;;;22.50;99.90;;;;;;6256899;28;94818;-68
2022/11/14 12:53:45;;;;;;;4.13;3.72;;;22.50;99.90;;;;;;6252662;28;94110;-67
2022/11/14 12:57:01;;;;;;;4.35;3.70;;;22.50;99.90;;;;;;6248093;28;94092;-68
2022/11/14 13:00:08;;;;;;;4.28;3.88;;;22.60;99.90;;;;;;6249947;28;93053;-68
2022/11/14 13:03:31;;;;;;;3.45;3.10;;;22.60;99.90;;;;;;6254097;28;94347;-68
2022/11/14 13:06:44;;;;;;;3.47;3.17;;;22.60;99.90;;;;;;6254761;28;93462;-67
2022/11/14 13:10:11;;;;;;;3.70;3.40;;;22.60;99.90;;;;;;6255301;28;94520;-68
2022/11/14 13:23:52;;;;;;;4.00;3.60;;;22.60;99.90;;;;;;6254662;28;93028;-67
2022/11/14 13:26:55;;;;;;;4.05;3.65;;;22.60;99.90;;;;;;6250694;28;94409;-68
2022/11/14 13:29:58;;;;;;;4.00;3.60;;;22.60;99.90;;;;;;6253340;28;94397;-67
2022/11/14 13:33:04;;;;;;;4.57;3.83;;;22.60;99.90;;;;;;6252376;28;94311;-68
2022/11/14 13:36:09;;;;;;;4.18;3.78;;;22.60;99.90;;;;;;6253923;28;93323;-67
2022/11/14 13:39:20;;;;;;;4.18;3.65;;;22.60;99.90;;;;;;6252309;27;93601;-67
2022/11/14 13:42:35;;;;;;;4.07;3.50;;;22.60;99.90;;;;;;6254059;28;94406;-67
2022/11/14 13:45:53;;;;;;;4.57;3.65;;;22.60;99.90;;;;;;6250929;27;94068;-67
2022/11/14 13:49:20;;;;;;;5.28;3.92;;;22.60;99.90;;;;;;6242680;28;95291;-68
2022/11/14 13:52:26;;;;;;;5.50;3.85;;;22.60;99.90;;;;;;6253664;28;94231;-67
2022/11/14 13:55:38;;;;;;;4.63;3.95;;;22.60;99.90;;;;;;6253442;28;94626;-67
2022/11/14 13:59:20;;;;;;;6.18;4.45;;;22.60;99.90;;;;;;6252386;27;94239;-67
2022/11/14 14:02:51;;;;;;;4.07;3.60;;;22.60;99.90;;;;;;6251773;28;92437;-67
2022/11/14 14:06:25;;;;;;;3.88;3.58;;;22.60;99.90;;;;;;6238762;28;92817;-68
2022/11/14 14:09:37;;;;;;;3.88;3.55;;;22.60;99.90;;;;;;6246136;28;94861;-67
2022/11/14 14:12:56;;;;;;;4.20;3.80;;;22.60;99.90;;;;;;6245419;28;93349;-67
2022/11/14 14:16:07;;;;;;;3.58;3.28;;;22.60;99.90;;;;;;6252183;28;94290;-67
2022/11/14 14:19:16;;;;;;;3.90;3.50;;;22.60;99.90;;;;;;6251561;28;94298;-67
2022/11/14 14:22:28;;;;;;;3.42;3.13;;;22.60;99.90;;;;;;6252355;28;95322;-67
2022/11/14 14:25:40;;;;;;;3.50;3.20;;;22.60;99.90;;;;;;6252697;28;94173;-67
2022/11/14 14:28:52;;;;;;;3.72;3.42;;;22.60;99.90;;;;;;6251129;27;94295;-67
2022/11/14 14:32:05;;;;;;;3.30;3.00;;;22.60;99.90;;;;;;6253364;28;94371;-67
2022/11/14 14:35:21;;;;;;;3.80;3.50;;;22.60;99.90;;;;;;6252506;28;94196;-67
2022/11/14 14:38:27;;;;;;;3.95;3.45;;;22.60;99.90;;;;;;6253408;28;94151;-67
2022/11/14 14:41:32;;;;;;;3.78;3.47;;;22.60;99.90;;;;;;6253370;28;94089;-67
2022/11/14 14:44:38;;;;;;;3.53;3.22;;;22.60;99.90;;;;;;6253090;28;93474;-67
2022/11/14 14:47:42;;;;;;;3.55;3.25;;;22.60;99.90;;;;;;6249189;28;94131;-67
2022/11/14 14:50:50;;;;;;;3.45;3.15;;;22.60;99.90;;;;;;6243489;28;93318;-68
2022/11/14 14:53:53;;;;;;;4.38;3.70;;;22.60;99.90;;;;;;6249134;28;95510;-67
2022/11/14 14:56:59;;;;;;;3.83;3.53;;;22.60;99.90;;;;;;6250664;28;94199;-67
2022/11/14 15:00:01;;;;;;;3.50;3.20;;;22.60;99.90;;;;;;6242027;28;94039;-67
2022/11/14 15:03:04;;;;;;;3.30;3.00;;;22.60;99.90;;;;;;6251986;27;94259;-67
2022/11/14 15:06:18;;;;;;;4.00;3.60;;;22.60;99.90;;;;;;6252885;28;94318;-67
2022/11/14 15:09:26;;;;;;;3.40;3.03;;;22.60;99.90;;;;;;6251425;28;94151;-67
2022/11/14 15:12:30;;;;;;;3.55;3.25;;;22.70;99.90;;;;;;6244470;28;94288;-68
2022/11/14 15:15:33;;;;;;;3.25;2.95;;;22.60;99.90;;;;;;6250635;28;92936;-68
2022/11/14 15:18:36;;;;;;;5.40;3.80;;;22.60;99.90;;;;;;6252469;28;94289;-68
2022/11/14 15:21:38;;;;;;;3.67;3.38;;;22.60;99.90;;;;;;6251244;28;94182;-68
2022/11/14 15:24:41;;;;;;;3.95;3.55;;;22.60;99.90;;;;;;6258305;27;95181;-67
2022/11/14 15:27:47;;;;;;;4.00;3.63;;;22.70;99.90;;;;;;6251511;28;94064;-68
2022/11/14 15:30:58;;;;;;;3.75;3.45;;;22.60;99.90;;;;;;6249471;28;94123;-67
2022/11/14 15:34:03;;;;;;;3.60;3.30;;;22.60;99.90;;;;;;6250631;28;95126;-68
2022/11/14 15:37:22;;;;;;;4.05;3.53;;;22.60;99.90;;;;;;6251862;28;94474;-67
2022/11/14 15:40:25;;;;;;;3.40;3.10;;;22.60;99.90;;;;;;6251784;28;94102;-68
2022/11/14 15:43:38;;;;;;;3.50;3.20;;;22.60;99.90;;;;;;6251039;28;94287;-68
2022/11/14 15:46:42;;;;;;;3.65;3.33;;;22.60;99.80;;;;;;6250626;28;93512;-68
2022/11/14 15:49:54;;;;;;;3.63;3.33;;;22.60;99.80;;;;;;6248283;28;95992;-68
2022/11/14 15:52:59;;;;;;;3.60;3.30;;;22.60;99.80;;;;;;6251067;28;94835;-68
2022/11/14 15:56:03;;;;;;;3.58;3.28;;;22.60;99.80;;;;;;6245079;27;95136;-68
2022/11/14 15:59:05;;;;;;;3.92;3.25;;;22.60;99.70;;;;;;6249702;28;94248;-67
2022/11/14 16:02:15;;;;;;;3.50;3.20;;;22.60;99.70;;;;;;6238630;28;94414;-69
2022/11/14 16:05:19;;;;;;;3.70;3.40;;;22.60;99.70;;;;;;6248955;27;94372;-69
2022/11/14 16:08:21;;;;;;;3.63;3.33;;;22.60;99.70;;;;;;6248510;28;94204;-68
2022/11/14 16:11:25;;;;;;;3.53;3.22;;;22.60;99.70;;;;;;6246950;27;94383;-68
2022/11/14 16:14:27;;;;;;;3.85;3.55;;;22.60;99.60;;;;;;6247669;27;94149;-68
2022/11/14 16:17:34;;;;;;;4.13;3.72;;;22.60;99.60;;;;;;6249406;28;93739;-68
2022/11/14 16:20:36;;;;;;;4.03;3.63;;;22.60;99.60;;;;;;6248688;28;92956;-68
2022/11/14 16:23:38;;;;;;;4.15;3.60;;;22.60;99.70;;;;;;6248746;28;93971;-68
2022/11/14 16:26:42;;;;;;;4.47;3.47;;;22.60;99.70;;;;;;6242530;28;95224;-68
2022/11/14 16:29:44;;;;;;;4.10;3.50;;;22.70;99.70;;;;;;6247699;28;94404;-68